Time;durP1;ratioP1;P1;durP2;ratioP2;P2;SDS_P1;SDS_P2;PMS_P1;PMS_P2;Temp;Humidity;BMP_temperature;BMP_pressure;BME280_temperature;BME280_humidity;BME280_pressure;Samples;Min_cycle;Max_cycle;Signal;HPM_P1;HPM_P2
2022/08/24 00:00:59;;;;;;;;;;;22.10;97.40;;;-147.18;100.00;67318.16;4973220;28;20393;-85
2022/08/24 00:03:26;;;;;;;;;;;22.10;97.50;;;-147.18;100.00;67318.16;4972951;28;19926;-85
2022/08/24 00:05:53;;;;;;;;;;;22.10;97.50;;;-147.18;100.00;67318.16;4972110;28;19928;-85
2022/08/24 00:08:20;;;;;;;;;;;22.10;97.80;;;-147.18;100.00;67318.16;4965284;28;19926;-85
2022/08/24 00:10:47;;;;;;;;;;;22.00;97.90;;;-147.18;100.00;67318.16;4973161;28;20383;-85
2022/08/24 00:13:15;;;;;;;;;;;22.10;97.90;;;-147.18;100.00;67318.16;4972654;28;19922;-85
2022/08/24 00:15:42;;;;;;;;;;;22.00;97.80;;;-147.18;100.00;67318.16;4971142;28;19922;-85
2022/08/24 00:18:11;;;;;;;;;;;22.00;97.70;;;-147.18;100.00;67318.16;4971132;28;19936;-85
2022/08/24 00:20:39;;;;;;;;;;;22.00;97.90;;;-147.18;100.00;67318.16;4967044;28;19929;-83
2022/08/24 00:23:07;;;;;;;;;;;22.00;98.00;;;-147.18;100.00;67318.16;4953804;28;19929;-83
2022/08/24 00:25:34;;;;;;;;;;;21.90;98.20;;;-147.18;100.00;67318.16;4961473;28;19929;-85
2022/08/24 00:28:01;;;;;;;;;;;21.90;98.40;;;-147.18;100.00;67318.16;4972349;28;19957;-85
2022/08/24 00:30:28;;;;;;;;;;;21.90;98.50;;;-147.18;100.00;67318.16;4968177;28;19933;-85
2022/08/24 00:32:55;;;;;;;;;;;21.90;98.60;;;-147.18;100.00;67318.16;4953819;28;19946;-85
2022/08/24 00:35:24;;;;;;;;;;;21.90;98.70;;;-147.18;100.00;67318.16;4958763;28;20009;-85
2022/08/24 00:37:52;;;;;;;;;;;21.90;98.70;;;-147.18;100.00;67318.16;4972142;28;19961;-85
2022/08/24 00:40:21;;;;;;;;;;;21.90;98.70;;;-147.18;100.00;67318.16;4959574;28;20017;-85
2022/08/24 00:42:49;;;;;;;;;;;21.80;98.60;;;-147.18;100.00;67318.16;4972054;28;19926;-85
2022/08/24 00:45:18;;;;;;;;;;;21.80;98.70;;;-147.18;100.00;67318.16;4971956;28;19932;-85
2022/08/24 00:47:47;;;;;;;;;;;21.80;98.70;;;-147.18;100.00;67318.16;4966697;28;19921;-85
2022/08/24 00:50:21;;;;;;;;;;;21.80;98.70;;;-147.18;100.00;67318.16;4968618;28;19930;-85
2022/08/24 00:52:55;;;;;;;;;;;21.80;98.80;;;-147.18;100.00;67318.16;4971515;28;20024;-85
2022/08/24 00:55:27;;;;;;;;;;;21.70;98.90;;;-147.18;100.00;67318.16;4970702;28;20352;-85
2022/08/24 00:57:57;;;;;;;;;;;21.70;98.90;;;-147.18;100.00;67318.16;4963768;28;20295;-85
2022/08/24 01:00:28;;;;;;;;;;;21.70;99.00;;;-147.18;100.00;67318.16;4960363;28;19923;-85
2022/08/24 01:03:00;;;;;;;;;;;21.70;99.10;;;-147.18;100.00;67318.16;4979346;28;19929;-85
2022/08/24 01:05:27;;;;;;;;;;;21.60;98.80;;;-147.18;100.00;67318.16;4962210;28;19929;-85
2022/08/24 01:07:55;;;;;;;;;;;21.60;99.00;;;-147.18;100.00;67318.16;4970440;28;19954;-85
2022/08/24 01:10:25;;;;;;;;;;;21.60;98.90;;;-147.18;100.00;67318.16;4960127;28;19933;-85
2022/08/24 01:12:55;;;;;;;;;;;21.60;99.10;;;-147.18;100.00;67318.16;4970746;28;20365;-85
2022/08/24 01:15:22;;;;;;;;;;;21.50;99.40;;;-147.18;100.00;67318.16;4970025;28;20024;-85
2022/08/24 01:20:34;;;;;;;;;;;21.50;99.70;;;-147.18;100.00;67318.16;4977780;28;19930;-85
2022/08/24 01:23:07;;;;;;;;;;;21.50;99.60;;;-147.18;100.00;67318.16;4984475;28;20391;-85
2022/08/24 01:25:37;;;;;;;;;;;21.50;99.70;;;-147.18;100.00;67318.16;4986689;28;19949;-86
2022/08/24 01:28:08;;;;;;;;;;;21.50;99.90;;;-147.18;100.00;67318.16;4961975;28;20403;-85
2022/08/24 01:30:36;;;;;;;;;;;21.40;99.90;;;-147.18;100.00;67318.16;4965895;28;19922;-85
2022/08/24 01:33:05;;;;;;;;;;;21.50;99.90;;;-147.18;100.00;67318.16;4972136;28;19937;-85
2022/08/24 01:35:34;;;;;;;;;;;21.50;99.90;;;-147.18;100.00;67318.16;4955206;28;19929;-85
2022/08/24 01:38:06;;;;;;;;;;;21.40;99.90;;;-147.18;100.00;67318.16;4961636;28;20293;-85
2022/08/24 01:40:35;;;;;;;;;;;21.40;99.90;;;-147.18;100.00;67318.16;4971466;28;19925;-85
2022/08/24 01:43:06;;;;;;;;;;;21.40;99.90;;;-147.18;100.00;67318.16;4954753;28;19962;-85
2022/08/24 01:45:33;;;;;;;;;;;21.40;99.90;;;-147.18;100.00;67318.16;4963204;28;20308;-85
2022/08/24 01:48:01;;;;;;;;;;;21.40;99.90;;;-147.18;100.00;67318.16;4952761;28;19926;-85
2022/08/24 01:50:30;;;;;;;;;;;21.30;99.90;;;-147.18;100.00;67318.16;4969926;28;19921;-84
2022/08/24 01:53:00;;;;;;;;;;;21.30;99.90;;;-147.18;100.00;67318.16;4970945;28;20290;-85
2022/08/24 01:55:28;;;;;;;;;;;21.30;99.90;;;-147.18;100.00;67318.16;4970971;28;19929;-85
2022/08/24 01:57:55;;;;;;;;;;;21.30;99.90;;;-147.18;100.00;67318.16;4984015;28;19926;-85
2022/08/24 02:00:24;;;;;;;;;;;21.30;99.90;;;-147.18;100.00;67318.16;4975109;28;19922;-85
2022/08/24 02:02:52;;;;;;;;;;;21.30;99.90;;;-147.18;100.00;67318.16;4975571;28;20359;-85
2022/08/24 02:05:19;;;;;;;;;;;21.20;99.90;;;-147.18;100.00;67318.16;4969895;28;20333;-85
2022/08/24 02:07:47;;;;;;;;;;;21.20;99.90;;;-147.18;100.00;67318.16;4976868;28;20298;-85
2022/08/24 02:10:14;;;;;;;;;;;21.20;99.90;;;-147.18;100.00;67318.16;4976696;28;19933;-85
2022/08/24 02:12:44;;;;;;;;;;;21.20;99.90;;;-147.18;100.00;67318.16;4992893;28;19928;-85
2022/08/24 02:15:11;;;;;;;;;;;21.20;99.90;;;-147.18;100.00;67318.16;4968239;28;19992;-85
2022/08/24 02:17:41;;;;;;;;;;;21.20;99.90;;;-147.18;100.00;67318.16;4976310;28;19929;-85
2022/08/24 02:20:09;;;;;;;;;;;21.20;99.90;;;-147.18;100.00;67318.16;4974867;28;19965;-85
2022/08/24 02:22:36;;;;;;;;;;;21.20;99.90;;;-147.18;100.00;67318.16;4973954;28;19922;-85
2022/08/24 02:25:05;;;;;;;;;;;21.20;99.90;;;-147.18;100.00;67318.16;4983627;28;20393;-85
2022/08/24 02:27:32;;;;;;;;;;;21.20;99.90;;;-147.18;100.00;67318.16;4976631;28;19922;-85
2022/08/24 02:29:59;;;;;;;;;;;21.10;99.90;;;-147.18;100.00;67318.16;4978232;28;19929;-85
2022/08/24 02:32:26;;;;;;;;;;;21.10;99.90;;;-147.18;100.00;67318.16;4976101;28;19922;-85
2022/08/24 02:34:54;;;;;;;;;;;21.10;99.90;;;-147.18;100.00;67318.16;4975545;28;19962;-85
2022/08/24 02:37:21;;;;;;;;;;;21.10;99.90;;;-147.18;100.00;67318.16;4983008;28;20486;-85
2022/08/24 02:39:49;;;;;;;;;;;21.00;99.90;;;-147.18;100.00;67318.16;4991832;28;19930;-85
2022/08/24 02:42:19;;;;;;;;;;;21.00;99.90;;;-147.18;100.00;67318.16;4978640;28;19922;-85
2022/08/24 02:44:46;;;;;;;;;;;21.00;99.90;;;-147.18;100.00;67318.16;4990963;28;20005;-85
2022/08/24 02:47:14;;;;;;;;;;;21.00;99.90;;;-147.18;100.00;67318.16;4976172;28;20390;-85
2022/08/24 02:49:41;;;;;;;;;;;21.00;99.90;;;-147.18;100.00;67318.16;4975967;28;19925;-85
2022/08/24 02:52:10;;;;;;;;;;;21.00;99.90;;;-147.18;100.00;67318.16;4976341;28;20019;-85
2022/08/24 02:54:38;;;;;;;;;;;20.90;99.90;;;-147.18;100.00;67318.16;4991287;28;19922;-85
2022/08/24 02:57:05;;;;;;;;;;;21.00;99.90;;;-147.18;100.00;67318.16;4984895;28;20342;-85
2022/08/24 02:59:32;;;;;;;;;;;20.90;99.90;;;-147.18;100.00;67318.16;4975190;28;19922;-82
2022/08/24 03:01:59;;;;;;;;;;;20.90;99.90;;;-147.18;100.00;67318.16;4963941;28;20014;-83
2022/08/24 03:04:27;;;;;;;;;;;20.90;99.90;;;-147.18;100.00;67318.16;4966096;28;19926;-85
2022/08/24 03:06:55;;;;;;;;;;;20.90;99.90;;;-147.18;100.00;67318.16;4976143;28;19926;-85
2022/08/24 03:09:24;;;;;;;;;;;20.90;99.90;;;-147.18;100.00;67318.16;4962798;28;19922;-85
2022/08/24 03:11:51;;;;;;;;;;;20.80;99.90;;;-147.18;100.00;67318.16;4965331;28;19926;-85
2022/08/24 03:14:18;;;;;;;;;;;20.80;99.90;;;-147.18;100.00;67318.16;4974113;28;19964;-85
2022/08/24 03:16:45;;;;;;;;;;;20.80;99.90;;;-147.18;100.00;67318.16;4973131;28;19978;-85
2022/08/24 03:19:14;;;;;;;;;;;20.80;99.90;;;-147.18;100.00;67318.16;4972826;28;19933;-85
2022/08/24 03:21:42;;;;;;;;;;;20.80;99.90;;;-147.18;100.00;67318.16;4972421;28;20386;-85
2022/08/24 03:24:11;;;;;;;;;;;20.80;99.90;;;-147.18;100.00;67318.16;4972473;28;19926;-85
2022/08/24 03:26:40;;;;;;;;;;;20.80;99.90;;;-147.18;100.00;67318.16;4972970;28;19929;-85
2022/08/24 03:29:07;;;;;;;;;;;20.80;99.90;;;-147.18;100.00;67318.16;4972873;28;19922;-85
2022/08/24 03:31:34;;;;;;;;;;;20.70;99.90;;;-147.18;100.00;67318.16;4973458;28;19925;-85
2022/08/24 03:34:02;;;;;;;;;;;20.70;99.90;;;-147.18;100.00;67318.16;4970750;28;20025;-85
2022/08/24 03:36:29;;;;;;;;;;;20.70;99.90;;;-147.18;100.00;67318.16;4972937;28;20436;-85
2022/08/24 03:38:56;;;;;;;;;;;20.70;99.90;;;-147.18;100.00;67318.16;4973964;28;19922;-85
2022/08/24 03:41:23;;;;;;;;;;;20.70;99.90;;;-147.18;100.00;67318.16;4972026;28;19926;-86
2022/08/24 03:43:54;;;;;;;;;;;20.70;99.90;;;-147.18;100.00;67318.16;4973626;28;19926;-85
2022/08/24 03:46:24;;;;;;;;;;;20.60;99.90;;;-147.18;100.00;67318.16;4973760;28;19955;-85
2022/08/24 03:48:53;;;;;;;;;;;20.60;99.90;;;-147.18;100.00;67318.16;4971438;28;19926;-85
2022/08/24 03:51:22;;;;;;;;;;;20.60;99.90;;;-147.18;100.00;67318.16;4959457;28;19930;-85
2022/08/24 03:53:51;;;;;;;;;;;20.60;99.90;;;-147.18;100.00;67318.16;4967321;28;19929;-85
2022/08/24 03:56:18;;;;;;;;;;;20.60;99.90;;;-147.18;100.00;67318.16;4963885;28;19929;-85
2022/08/24 03:58:46;;;;;;;;;;;20.60;99.90;;;-147.18;100.00;67318.16;4971525;28;19929;-85
2022/08/24 04:01:15;;;;;;;;;;;20.60;99.90;;;-147.18;100.00;67318.16;4971162;28;19958;-85
2022/08/24 04:03:44;;;;;;;;;;;20.50;99.90;;;-147.18;100.00;67318.16;4971335;28;19922;-85
2022/08/24 04:06:14;;;;;;;;;;;20.50;99.90;;;-147.18;100.00;67318.16;4971568;28;19922;-85
2022/08/24 04:08:42;;;;;;;;;;;20.50;99.90;;;-147.18;100.00;67318.16;4971642;28;19926;-85
2022/08/24 04:11:11;;;;;;;;;;;20.50;99.90;;;-147.18;100.00;67318.16;4970771;28;20110;-85
2022/08/24 04:13:39;;;;;;;;;;;20.50;99.90;;;-147.18;100.00;67318.16;4972988;28;20013;-85
2022/08/24 04:16:08;;;;;;;;;;;20.50;99.90;;;-147.18;100.00;67318.16;4972061;28;19977;-85
2022/08/24 04:18:36;;;;;;;;;;;20.40;99.90;;;-147.18;100.00;67318.16;4971217;28;20449;-85
2022/08/24 04:21:04;;;;;;;;;;;20.40;99.90;;;-147.18;100.00;67318.16;4953523;28;20414;-85
2022/08/24 04:23:33;;;;;;;;;;;20.40;99.90;;;-147.18;100.00;67318.16;4967417;28;19926;-85
2022/08/24 04:26:02;;;;;;;;;;;20.40;99.90;;;-147.18;100.00;67318.16;4972928;28;20409;-85
2022/08/24 04:28:31;;;;;;;;;;;20.40;99.90;;;-147.18;100.00;67318.16;4962928;28;19926;-85
2022/08/24 04:30:59;;;;;;;;;;;20.30;99.90;;;-147.18;100.00;67318.16;4971497;28;20036;-85
2022/08/24 04:33:37;;;;;;;;;;;20.40;99.90;;;-147.18;100.00;67318.16;4971377;28;19933;-87
2022/08/24 04:36:07;;;;;;;;;;;20.40;99.90;;;-147.18;100.00;67318.16;4971764;28;19922;-83
2022/08/24 04:38:34;;;;;;;;;;;20.40;99.90;;;-147.18;100.00;67318.16;4971223;28;19922;-86
2022/08/24 04:41:22;;;;;;;;;;;20.40;99.90;;;-147.18;100.00;67318.16;4949968;28;19930;-85
2022/08/24 04:43:50;;;;;;;;;;;20.40;99.90;;;-147.18;100.00;67318.16;4982669;28;19976;-83
2022/08/24 04:46:19;;;;;;;;;;;20.30;99.90;;;-147.18;100.00;67318.16;4986795;28;20012;-84
2022/08/24 04:48:49;;;;;;;;;;;20.30;99.90;;;-147.18;100.00;67318.16;4970820;28;19933;-83
2022/08/24 04:51:18;;;;;;;;;;;20.30;99.90;;;-147.18;100.00;67318.16;4960429;28;19970;-83
2022/08/24 04:53:45;;;;;;;;;;;20.30;99.90;;;-147.18;100.00;67318.16;4965396;28;20784;-83
2022/08/24 04:56:16;;;;;;;;;;;20.30;99.90;;;-147.18;100.00;67318.16;4971194;28;19929;-83
2022/08/24 04:58:44;;;;;;;;;;;20.30;99.90;;;-147.18;100.00;67318.16;4970113;28;19950;-83
2022/08/24 05:01:15;;;;;;;;;;;20.30;99.90;;;-147.18;100.00;67318.16;4969274;28;19926;-83
2022/08/24 05:03:44;;;;;;;;;;;20.40;99.90;;;-147.18;100.00;67318.16;4969605;28;19926;-83
2022/08/24 05:06:14;;;;;;;;;;;20.30;99.90;;;-147.18;100.00;67318.16;4962039;28;19933;-83
2022/08/24 05:08:42;;;;;;;;;;;20.40;99.90;;;-147.18;100.00;67318.16;4972187;28;19941;-83
2022/08/24 05:11:10;;;;;;;;;;;20.40;99.90;;;-147.18;100.00;67318.16;4970807;28;19933;-82
2022/08/24 05:13:38;;;;;;;;;;;20.40;99.90;;;-147.18;100.00;67318.16;4970791;28;19922;-85
2022/08/24 05:16:06;;;;;;;;;;;20.40;99.90;;;-147.18;100.00;67318.16;4968245;28;19933;-85
2022/08/24 05:18:34;;;;;;;;;;;20.40;99.90;;;-147.18;100.00;67318.16;4980477;28;20375;-85
2022/08/24 05:21:01;;;;;;;;;;;20.40;99.90;;;-147.18;100.00;67318.16;4986816;28;19932;-84
2022/08/24 05:23:30;;;;;;;;;;;20.40;99.90;;;-147.18;100.00;67318.16;4971706;28;20413;-83
2022/08/24 05:26:04;;;;;;;;;;;20.40;99.90;;;-147.18;100.00;67318.16;4968206;28;19929;-80
2022/08/24 05:28:34;;;;;;;;;;;20.40;99.90;;;-147.18;100.00;67318.16;4963926;28;20048;-85
2022/08/24 05:31:07;;;;;;;;;;;20.40;99.90;;;-147.18;100.00;67318.16;4969649;28;20410;-85
2022/08/24 05:33:35;;;;;;;;;;;20.40;99.90;;;-147.18;100.00;67318.16;4970253;28;19922;-85
2022/08/24 05:36:03;;;;;;;;;;;20.40;99.90;;;-147.18;100.00;67318.16;4969563;28;20012;-85
2022/08/24 05:38:32;;;;;;;;;;;20.50;99.90;;;-147.18;100.00;67318.16;4970682;28;20032;-85
2022/08/24 05:41:04;;;;;;;;;;;20.50;99.90;;;-147.18;100.00;67318.16;4971897;28;19993;-85
2022/08/24 05:43:34;;;;;;;;;;;20.50;99.90;;;-147.18;100.00;67318.16;4970930;28;19962;-85
2022/08/24 05:46:01;;;;;;;;;;;20.60;99.90;;;-147.18;100.00;67318.16;4970606;28;19926;-85
2022/08/24 05:48:28;;;;;;;;;;;20.60;99.90;;;-147.18;100.00;67318.16;4970134;28;20330;-85
2022/08/24 05:51:08;;;;;;;;;;;20.60;99.90;;;-147.18;100.00;67318.16;4962097;28;19922;-85
2022/08/24 05:53:45;;;;;;;;;;;20.70;99.90;;;-147.18;100.00;67318.16;4961876;28;19976;-85
2022/08/24 05:56:15;;;;;;;;;;;20.80;99.90;;;-147.18;100.00;67318.16;4967448;28;20271;-85
2022/08/24 05:58:43;;;;;;;;;;;20.80;99.90;;;-147.18;100.00;67318.16;4968507;28;19978;-85
2022/08/24 06:01:13;;;;;;;;;;;20.90;99.90;;;-147.18;100.00;67318.16;4970246;28;19997;-86
2022/08/24 06:03:40;;;;;;;;;;;20.90;99.90;;;-147.18;100.00;67318.16;4966051;28;20017;-85
2022/08/24 06:06:10;;;;;;;;;;;21.00;99.90;;;-147.18;100.00;67318.16;4964976;28;20385;-87
2022/08/24 06:08:37;;;;;;;;;;;21.00;99.90;;;-147.18;100.00;67318.16;4962205;28;19936;-84
2022/08/24 06:11:06;;;;;;;;;;;21.00;99.90;;;-147.18;100.00;67318.16;4968372;28;19922;-85
2022/08/24 06:13:34;;;;;;;;;;;21.00;99.90;;;-147.18;100.00;67318.16;4983743;28;19930;-85
2022/08/24 06:16:06;;;;;;;;;;;21.10;99.90;;;-147.18;100.00;67318.16;4962855;28;19926;-85
2022/08/24 06:18:34;;;;;;;;;;;21.10;99.90;;;-147.18;100.00;67318.16;4964751;28;19928;-84
2022/08/24 06:21:08;;;;;;;;;;;21.10;99.90;;;-147.18;100.00;67318.16;4969811;28;19972;-84
2022/08/24 06:23:36;;;;;;;;;;;21.10;99.90;;;-147.18;100.00;67318.16;4967701;28;19930;-84
2022/08/24 06:28:59;;;;;;;;;;;21.10;99.90;;;-147.18;100.00;67318.16;4928302;28;19926;-84
2022/08/24 06:31:26;;;;;;;;;;;21.10;99.90;;;-147.18;100.00;67318.16;4966534;28;20517;-84
2022/08/24 06:33:54;;;;;;;;;;;21.10;99.90;;;-147.18;100.00;67318.16;4953187;28;19926;-83
2022/08/24 06:36:21;;;;;;;;;;;21.10;99.90;;;-147.18;100.00;67318.16;4962802;28;19922;-83
2022/08/24 06:38:51;;;;;;;;;;;21.10;99.90;;;-147.18;100.00;67318.16;4976200;28;19922;-84
2022/08/24 06:41:19;;;;;;;;;;;21.20;99.90;;;-147.18;100.00;67318.16;4986459;28;20449;-84
2022/08/24 06:43:46;;;;;;;;;;;21.20;99.90;;;-147.18;100.00;67318.16;4959735;28;20272;-84
2022/08/24 06:46:15;;;;;;;;;;;21.20;99.90;;;-147.18;100.00;67318.16;4962566;28;19929;-85
2022/08/24 06:48:50;;;;;;;;;;;21.20;99.90;;;-147.18;100.00;67318.16;4966196;28;19961;-85
2022/08/24 06:51:18;;;;;;;;;;;21.30;99.90;;;-147.18;100.00;67318.16;4976959;28;20409;-84
2022/08/24 06:53:46;;;;;;;;;;;21.40;99.90;;;-147.18;100.00;67318.16;4970278;28;19956;-85
2022/08/24 06:56:15;;;;;;;;;;;21.50;99.90;;;-147.18;100.00;67318.16;4991736;28;19930;-84
2022/08/24 06:58:43;;;;;;;;;;;21.50;99.90;;;-147.18;100.00;67318.16;4972605;28;19930;-84
2022/08/24 07:01:18;;;;;;;;;;;21.60;99.90;;;-147.18;100.00;67318.16;4983021;28;19930;-84
2022/08/24 07:03:47;;;;;;;;;;;21.60;99.90;;;-147.18;100.00;67318.16;4968207;28;19922;-84
2022/08/24 07:06:35;;;;;;;;;;;21.70;99.90;;;-147.18;100.00;67318.16;4967542;28;19937;-84
2022/08/24 07:09:03;;;;;;;;;;;21.80;99.90;;;-147.18;100.00;67318.16;4956204;28;19926;-84
2022/08/24 07:11:31;;;;;;;;;;;21.80;99.90;;;-147.18;100.00;67318.16;4957367;28;19926;-84
2022/08/24 07:13:58;;;;;;;;;;;21.90;99.90;;;-147.18;100.00;67318.16;4995466;28;19922;-84
2022/08/24 07:16:28;;;;;;;;;;;22.00;99.90;;;-147.18;100.00;67318.16;4968710;28;19922;-83
2022/08/24 07:19:01;;;;;;;;;;;22.00;99.90;;;-147.18;100.00;67318.16;4980950;28;20008;-84
2022/08/24 07:21:28;;;;;;;;;;;22.00;99.90;;;-147.18;100.00;67318.16;4989521;23;20405;-84
2022/08/24 07:23:57;;;;;;;;;;;22.10;99.90;;;-147.18;100.00;67318.16;4991317;28;20349;-85
2022/08/24 07:26:27;;;;;;;;;;;22.20;99.90;;;-147.18;100.00;67318.16;4991768;28;20354;-84
2022/08/24 07:28:59;;;;;;;;;;;22.30;99.90;;;-147.18;100.00;67318.16;4979232;28;19922;-84
2022/08/24 07:31:30;;;;;;;;;;;22.30;99.80;;;-147.18;100.00;67318.16;4970283;28;19944;-84
2022/08/24 07:34:06;;;;;;;;;;;22.40;96.30;;;-147.18;100.00;67318.16;5000805;28;20398;-85
2022/08/24 07:36:35;;;;;;;;;;;22.50;95.10;;;-147.18;100.00;67318.16;4969670;28;19926;-85
2022/08/24 07:39:03;;;;;;;;;;;22.60;93.90;;;-147.18;100.00;67318.16;4964333;28;20658;-85
2022/08/24 07:41:30;;;;;;;;;;;22.70;92.90;;;-147.18;100.00;67318.16;4963014;28;19922;-85
2022/08/24 07:43:58;;;;;;;;;;;22.70;92.70;;;-147.18;100.00;67318.16;4999684;28;20473;-85
2022/08/24 07:46:25;;;;;;;;;;;22.80;92.30;;;-147.18;100.00;67318.16;4965879;28;19922;-85
2022/08/24 07:48:55;;;;;;;;;;;22.90;93.60;;;-147.18;100.00;67318.16;4974959;28;20413;-85
2022/08/24 07:51:22;;;;;;;;;;;23.00;93.40;;;-147.18;100.00;67318.16;4968239;28;20338;-85
2022/08/24 07:53:49;;;;;;;;;;;23.00;93.30;;;-147.18;100.00;67318.16;4968086;28;20021;-85
2022/08/24 07:56:16;;;;;;;;;;;23.00;93.70;;;-147.18;100.00;67318.16;4960855;28;19929;-85
2022/08/24 07:58:46;;;;;;;;;;;23.10;95.10;;;-147.18;100.00;67318.16;4958144;28;19932;-85
2022/08/24 08:01:13;;;;;;;;;;;23.20;94.30;;;-147.18;100.00;67318.16;4966420;28;19948;-85
2022/08/24 08:03:41;;;;;;;;;;;23.30;93.40;;;-147.18;100.00;67318.16;4984702;28;19921;-85
2022/08/24 08:06:10;;;;;;;;;;;23.40;93.20;;;-147.18;100.00;67318.16;4973608;28;19929;-85
2022/08/24 08:08:39;;;;;;;;;;;23.50;93.10;;;-147.18;100.00;67318.16;4988389;28;19937;-85
2022/08/24 08:11:07;;;;;;;;;;;23.60;91.80;;;-147.18;100.00;67318.16;4982361;28;20382;-85
2022/08/24 08:13:35;;;;;;;;;;;23.70;90.60;;;-147.18;100.00;67318.16;4968884;28;19925;-82
2022/08/24 08:16:04;;;;;;;;;;;23.80;89.50;;;-147.18;100.00;67318.16;4959230;28;19926;-82
2022/08/24 08:18:31;;;;;;;;;;;23.80;88.00;;;-147.18;100.00;67318.16;4988245;28;20378;-82
2022/08/24 08:21:02;;;;;;;;;;;23.90;89.50;;;-147.18;100.00;67318.16;4958145;28;19922;-85
2022/08/24 08:26:32;;;;;;;;;;;24.10;86.20;;;-147.18;100.00;67318.16;4967478;28;19964;-82
2022/08/24 08:29:05;;;;;;;;;;;24.10;84.60;;;-147.18;100.00;67318.16;4967128;28;20387;-82
2022/08/24 08:31:36;;;;;;;;;;;24.20;86.20;;;-147.18;100.00;67318.16;4970825;28;19989;-82
2022/08/24 08:34:04;;;;;;;;;;;24.30;84.20;;;-147.18;100.00;67318.16;4998536;28;19953;-82
2022/08/24 08:36:33;;;;;;;;;;;24.40;86.10;;;-147.18;100.00;67318.16;4974258;28;19922;-82
2022/08/24 08:39:03;;;;;;;;;;;24.40;84.80;;;-147.18;100.00;67318.16;4966198;28;19922;-83
2022/08/24 08:41:57;;;;;;;;;;;24.50;84.30;;;-147.18;100.00;67318.16;4971147;28;19928;-83
2022/08/24 08:44:38;;;;;;;;;;;24.50;83.50;;;-147.18;100.00;67318.16;4970351;28;19942;-82
2022/08/24 08:47:16;;;;;;;;;;;24.60;82.60;;;-147.18;100.00;67318.16;4961573;28;19925;-83
2022/08/24 08:50:13;;;;;;;;;;;24.60;82.90;;;-147.18;100.00;67318.16;4974472;28;19926;-83
2022/08/24 08:53:17;;;;;;;;;;;24.60;81.80;;;-147.18;100.00;67318.16;4971609;28;19922;-83
2022/08/24 08:55:57;;;;;;;;;;;24.70;83.10;;;-147.18;100.00;67318.16;4955112;28;19922;-83
2022/08/24 08:58:47;;;;;;;;;;;24.70;79.70;;;-147.18;100.00;67318.16;4968917;28;20012;-83
2022/08/24 09:01:20;;;;;;;;;;;24.70;82.60;;;-147.18;100.00;67318.16;4973821;28;20020;-83
2022/08/24 09:04:13;;;;;;;;;;;24.80;81.90;;;-147.18;100.00;67318.16;4959327;28;19929;-85
2022/08/24 09:07:01;;;;;;;;;;;24.80;79.30;;;-147.18;100.00;67318.16;4958544;28;19926;-84
2022/08/24 09:10:14;;;;;;;;;;;24.80;79.70;;;-147.18;100.00;67318.16;4986819;28;19948;-86
2022/08/24 09:12:53;;;;;;;;;;;24.80;79.50;;;-147.18;100.00;67318.16;4985503;28;19921;-84
2022/08/24 09:15:35;;;;;;;;;;;24.80;80.00;;;-147.18;100.00;67318.16;4972314;28;19928;-82
2022/08/24 09:18:18;;;;;;;;;;;24.90;81.00;;;-147.18;100.00;67318.16;4961673;28;19950;-82
2022/08/24 09:21:00;;;;;;;;;;;24.90;83.50;;;-147.18;100.00;67318.16;4971390;28;19925;-82
2022/08/24 09:23:34;;;;;;;;;;;25.00;83.80;;;-147.18;100.00;67318.16;4967239;28;19968;-82
2022/08/24 09:26:08;;;;;;;;;;;25.00;80.10;;;-147.18;100.00;67318.16;4987337;28;20410;-82
2022/08/24 09:28:48;;;;;;;;;;;25.00;81.70;;;-147.18;100.00;67318.16;4959010;28;20387;-82
2022/08/24 09:31:42;;;;;;;;;;;25.10;80.30;;;-147.18;100.00;67318.16;4972120;28;19934;-82
2022/08/24 09:34:18;;;;;;;;;;;25.10;79.70;;;-147.18;100.00;67318.16;4970715;28;19953;-82
2022/08/24 09:36:53;;;;;;;;;;;25.30;81.70;;;-147.18;100.00;67318.16;4981849;28;19965;-82
2022/08/24 09:39:37;;;;;;;;;;;25.30;80.70;;;-147.18;100.00;67318.16;4982955;28;19945;-82
2022/08/24 09:42:27;;;;;;;;;;;25.30;78.70;;;-147.18;100.00;67318.16;4990447;28;19980;-84
2022/08/24 09:45:20;;;;;;;;;;;25.30;80.70;;;-147.18;100.00;67318.16;4982503;28;19926;-84
2022/08/24 09:48:23;;;;;;;;;;;25.40;79.90;;;-147.18;100.00;67318.16;4982012;28;20403;-84
2022/08/24 09:51:07;;;;;;;;;;;25.40;78.40;;;-147.18;100.00;67318.16;4974775;28;20457;-82
2022/08/24 09:54:06;;;;;;;;;;;25.40;79.00;;;-147.18;100.00;67318.16;4982948;28;19957;-83
2022/08/24 09:56:45;;;;;;;;;;;25.50;79.30;;;-147.18;100.00;67318.16;4979358;28;19922;-82
2022/08/24 09:59:24;;;;;;;;;;;25.50;78.20;;;-147.18;100.00;67318.16;4976780;28;19926;-82
2022/08/24 10:02:07;;;;;;;;;;;25.60;77.30;;;-147.18;100.00;67318.16;4981412;28;20035;-82
2022/08/24 10:04:41;;;;;;;;;;;25.60;77.20;;;-147.18;100.00;67318.16;4978777;28;19988;-82
2022/08/24 10:07:14;;;;;;;;;;;25.60;77.70;;;-147.18;100.00;67318.16;4984254;28;19929;-82
2022/08/24 10:10:09;;;;;;;;;;;25.70;78.40;;;-147.18;100.00;67318.16;4986213;28;20275;-82
2022/08/24 10:12:49;;;;;;;;;;;25.70;76.70;;;-147.18;100.00;67318.16;4982951;28;20019;-82
2022/08/24 10:15:20;;;;;;;;;;;25.70;75.80;;;-147.18;100.00;67318.16;4984637;28;19922;-82
2022/08/24 10:17:58;;;;;;;;;;;25.70;76.00;;;-147.18;100.00;67318.16;4986240;28;20025;-82
2022/08/24 10:20:29;;;;;;;;;;;25.80;76.20;;;-147.18;100.00;67318.16;4976487;28;19976;-82
2022/08/24 10:23:15;;;;;;;;;;;25.90;77.60;;;-147.18;100.00;67318.16;4991654;28;20028;-82
2022/08/24 10:25:47;;;;;;;;;;;25.90;75.50;;;-147.18;100.00;67318.16;4980983;28;20381;-82
2022/08/24 10:28:36;;;;;;;;;;;25.90;74.10;;;-147.18;100.00;67318.16;4988415;28;20787;-80
2022/08/24 10:31:05;;;;;;;;;;;25.90;75.40;;;-147.18;100.00;67318.16;4975413;28;19977;-85
2022/08/24 10:33:38;;;;;;;;;;;26.00;75.90;;;-147.18;100.00;67318.16;4987575;28;19922;-85
2022/08/24 10:36:26;;;;;;;;;;;25.90;76.30;;;-147.18;100.00;67318.16;4984019;28;19926;-87
2022/08/24 10:45:32;;;;;;;;;;;25.80;76.10;;;-147.18;100.00;67318.16;4991001;28;19918;-86
2022/08/24 10:48:14;;;;;;;;;;;25.80;76.30;;;-147.18;100.00;67318.16;4990676;28;20457;-85
2022/08/24 10:50:53;;;;;;;;;;;25.80;75.70;;;-147.18;100.00;67318.16;4993069;28;19921;-83
2022/08/24 10:53:26;;;;;;;;;;;25.80;74.60;;;-147.18;100.00;67318.16;4983552;28;19930;-83
2022/08/24 10:56:06;;;;;;;;;;;25.90;75.60;;;-147.18;100.00;67318.16;4986019;28;19921;-83
2022/08/24 10:58:50;;;;;;;;;;;25.90;74.30;;;-147.18;100.00;67318.16;4985820;28;19929;-83
2022/08/24 11:01:25;;;;;;;;;;;25.90;74.70;;;-147.18;100.00;67318.16;4987276;28;19921;-83
2022/08/24 11:03:57;;;;;;;;;;;25.90;73.90;;;-147.18;100.00;67318.16;4989350;28;19929;-83
2022/08/24 11:06:30;;;;;;;;;;;26.00;75.30;;;-147.18;100.00;67318.16;4985844;28;20017;-83
2022/08/24 11:09:00;;;;;;;;;;;26.00;74.50;;;-147.18;100.00;67318.16;4991238;28;19926;-83
2022/08/24 11:11:30;;;;;;;;;;;26.10;75.20;;;-147.18;100.00;67318.16;4987036;28;20016;-83
2022/08/24 11:14:00;;;;;;;;;;;26.20;74.50;;;-147.18;100.00;67318.16;4975205;28;20371;-83
2022/08/24 11:16:31;;;;;;;;;;;26.20;73.70;;;-147.18;100.00;67318.16;4985958;28;19929;-87
2022/08/24 11:18:59;;;;;;;;;;;26.30;73.70;;;-147.18;100.00;67318.16;4984210;28;19968;-83
2022/08/24 11:22:26;;;;;;;;;;;26.30;73.70;;;-147.18;100.00;67318.16;4983609;28;19930;-83
2022/08/24 11:24:59;;;;;;;;;;;26.50;72.00;;;-147.18;100.00;67318.16;4986876;28;19925;-83
2022/08/24 11:27:31;;;;;;;;;;;26.50;71.50;;;-147.18;100.00;67318.16;4990912;28;20024;-83
2022/08/24 11:30:03;;;;;;;;;;;26.50;72.50;;;-147.18;100.00;67318.16;4991385;28;20012;-83